sensor_id;sensor_type;location;lat;lon;timestamp;P1;durP1;ratioP1;P2;durP2;ratioP2
14007;SDS011;61651;45.508;12.232;2023-05-10T00:00:04;2.47;;;2.10;;
14007;SDS011;61651;45.508;12.232;2023-05-10T00:03:07;2.25;;;2.05;;
14007;SDS011;61651;45.508;12.232;2023-05-10T00:06:09;6.03;;;2.20;;
14007;SDS011;61651;45.508;12.232;2023-05-10T00:09:11;2.35;;;2.15;;
14007;SDS011;61651;45.508;12.232;2023-05-10T00:12:15;3.17;;;2.10;;
14007;SDS011;61651;45.508;12.232;2023-05-10T00:15:17;2.78;;;2.33;;
14007;SDS011;61651;45.508;12.232;2023-05-10T00:18:19;3.42;;;2.40;;
14007;SDS011;61651;45.508;12.232;2023-05-10T00:21:21;2.75;;;2.00;;
14007;SDS011;61651;45.508;12.232;2023-05-10T00:24:23;2.13;;;1.92;;
14007;SDS011;61651;45.508;12.232;2023-05-10T00:27:26;2.85;;;2.50;;
14007;SDS011;61651;45.508;12.232;2023-05-10T00:30:28;2.60;;;2.33;;
14007;SDS011;61651;45.508;12.232;2023-05-10T00:33:30;2.08;;;1.98;;
14007;SDS011;61651;45.508;12.232;2023-05-10T00:36:32;2.45;;;2.25;;
14007;SDS011;61651;45.508;12.232;2023-05-10T00:39:34;2.70;;;2.50;;
14007;SDS011;61651;45.508;12.232;2023-05-10T00:42:38;2.33;;;2.10;;
14007;SDS011;61651;45.508;12.232;2023-05-10T00:45:40;2.42;;;2.20;;
14007;SDS011;61651;45.508;12.232;2023-05-10T00:48:43;2.38;;;2.17;;
14007;SDS011;61651;45.508;12.232;2023-05-10T00:51:45;2.15;;;2.00;;
14007;SDS011;61651;45.508;12.232;2023-05-10T00:54:47;2.40;;;2.20;;
14007;SDS011;61651;45.508;12.232;2023-05-10T00:57:51;2.88;;;1.92;;
14007;SDS011;61651;45.508;12.232;2023-05-10T01:00:54;3.03;;;2.10;;
14007;SDS011;61651;45.508;12.232;2023-05-10T01:03:57;2.13;;;2.03;;
14007;SDS011;61651;45.508;12.232;2023-05-10T01:07:00;2.35;;;2.20;;
14007;SDS011;61651;45.508;12.232;2023-05-10T01:10:02;3.03;;;1.90;;
14007;SDS011;61651;45.508;12.232;2023-05-10T01:13:05;2.15;;;1.95;;
14007;SDS011;61651;45.508;12.232;2023-05-10T01:16:07;1.90;;;1.80;;
14007;SDS011;61651;45.508;12.232;2023-05-10T01:19:11;2.78;;;2.00;;
14007;SDS011;61651;45.508;12.232;2023-05-10T01:22:25;2.03;;;1.83;;
14007;SDS011;61651;45.508;12.232;2023-05-10T01:29:25;3.55;;;2.33;;
14007;SDS011;61651;45.508;12.232;2023-05-10T01:32:56;4.30;;;2.10;;
14007;SDS011;61651;45.508;12.232;2023-05-10T01:36:03;2.20;;;2.00;;
14007;SDS011;61651;45.508;12.232;2023-05-10T01:39:11;2.22;;;2.05;;
14007;SDS011;61651;45.508;12.232;2023-05-10T01:42:26;2.40;;;2.20;;
14007;SDS011;61651;45.508;12.232;2023-05-10T01:45:34;3.33;;;2.00;;
14007;SDS011;61651;45.508;12.232;2023-05-10T01:48:42;2.38;;;2.17;;
14007;SDS011;61651;45.508;12.232;2023-05-10T01:51:50;2.65;;;2.20;;
14007;SDS011;61651;45.508;12.232;2023-05-10T01:54:56;2.38;;;2.03;;
14007;SDS011;61651;45.508;12.232;2023-05-10T01:58:04;2.53;;;2.20;;
14007;SDS011;61651;45.508;12.232;2023-05-10T02:01:09;3.80;;;2.20;;
14007;SDS011;61651;45.508;12.232;2023-05-10T02:04:14;4.13;;;2.30;;
14007;SDS011;61651;45.508;12.232;2023-05-10T02:07:18;2.28;;;2.08;;
14007;SDS011;61651;45.508;12.232;2023-05-10T02:10:21;3.38;;;2.42;;
14007;SDS011;61651;45.508;12.232;2023-05-10T02:13:23;2.20;;;2.00;;
14007;SDS011;61651;45.508;12.232;2023-05-10T02:16:27;3.38;;;2.15;;
14007;SDS011;61651;45.508;12.232;2023-05-10T02:19:32;2.40;;;2.20;;
14007;SDS011;61651;45.508;12.232;2023-05-10T02:22:36;3.08;;;2.00;;
14007;SDS011;61651;45.508;12.232;2023-05-10T02:25:39;3.17;;;2.55;;
14007;SDS011;61651;45.508;12.232;2023-05-10T02:28:42;2.53;;;2.33;;
14007;SDS011;61651;45.508;12.232;2023-05-10T02:31:45;2.38;;;2.17;;
14007;SDS011;61651;45.508;12.232;2023-05-10T02:34:48;2.35;;;2.15;;
14007;SDS011;61651;45.508;12.232;2023-05-10T02:37:51;2.35;;;2.15;;
14007;SDS011;61651;45.508;12.232;2023-05-10T02:40:55;2.60;;;2.40;;
14007;SDS011;61651;45.508;12.232;2023-05-10T02:43:59;2.40;;;2.20;;
14007;SDS011;61651;45.508;12.232;2023-05-10T02:47:03;4.53;;;2.75;;
14007;SDS011;61651;45.508;12.232;2023-05-10T02:50:07;2.53;;;2.33;;
14007;SDS011;61651;45.508;12.232;2023-05-10T02:53:10;2.80;;;2.50;;
14007;SDS011;61651;45.508;12.232;2023-05-10T02:56:20;2.65;;;2.45;;
14007;SDS011;61651;45.508;12.232;2023-05-10T02:59:26;2.70;;;2.08;;
14007;SDS011;61651;45.508;12.232;2023-05-10T03:02:28;2.70;;;2.33;;
14007;SDS011;61651;45.508;12.232;2023-05-10T03:05:32;2.40;;;2.20;;
14007;SDS011;61651;45.508;12.232;2023-05-10T03:08:34;2.90;;;2.60;;
14007;SDS011;61651;45.508;12.232;2023-05-10T03:11:39;2.65;;;2.33;;
14007;SDS011;61651;45.508;12.232;2023-05-10T03:14:53;2.40;;;2.20;;
14007;SDS011;61651;45.508;12.232;2023-05-10T03:18:01;2.63;;;2.42;;
14007;SDS011;61651;45.508;12.232;2023-05-10T03:21:10;3.17;;;2.33;;
14007;SDS011;61651;45.508;12.232;2023-05-10T05:08:48;3.88;;;2.97;;
14007;SDS011;61651;45.508;12.232;2023-05-10T05:11:50;2.42;;;2.25;;
14007;SDS011;61651;45.508;12.232;2023-05-10T05:14:52;5.57;;;2.30;;
14007;SDS011;61651;45.508;12.232;2023-05-10T05:17:54;2.90;;;2.70;;
14007;SDS011;61651;45.508;12.232;2023-05-10T05:20:56;3.40;;;2.65;;
14007;SDS011;61651;45.508;12.232;2023-05-10T05:24:00;3.20;;;2.75;;
14007;SDS011;61651;45.508;12.232;2023-05-10T05:27:02;4.13;;;2.63;;
14007;SDS011;61651;45.508;12.232;2023-05-10T05:30:04;3.33;;;2.55;;
14007;SDS011;61651;45.508;12.232;2023-05-10T05:33:07;3.03;;;2.45;;
14007;SDS011;61651;45.508;12.232;2023-05-10T05:36:09;2.45;;;2.22;;
14007;SDS011;61651;45.508;12.232;2023-05-10T05:39:12;5.10;;;2.88;;
14007;SDS011;61651;45.508;12.232;2023-05-10T05:42:15;3.22;;;2.72;;
14007;SDS011;61651;45.508;12.232;2023-05-10T05:45:18;3.95;;;2.60;;
14007;SDS011;61651;45.508;12.232;2023-05-10T05:48:21;3.33;;;2.90;;
14007;SDS011;61651;45.508;12.232;2023-05-10T05:51:23;3.13;;;2.80;;
14007;SDS011;61651;45.508;12.232;2023-05-10T05:54:26;4.28;;;2.75;;
14007;SDS011;61651;45.508;12.232;2023-05-10T05:57:28;3.05;;;2.75;;
14007;SDS011;61651;45.508;12.232;2023-05-10T06:00:30;2.63;;;2.42;;
14007;SDS011;61651;45.508;12.232;2023-05-10T06:03:32;4.28;;;2.60;;
14007;SDS011;61651;45.508;12.232;2023-05-10T06:06:34;2.80;;;2.60;;
14007;SDS011;61651;45.508;12.232;2023-05-10T06:09:37;3.28;;;2.35;;
14007;SDS011;61651;45.508;12.232;2023-05-10T06:12:39;4.65;;;2.92;;
14007;SDS011;61651;45.508;12.232;2023-05-10T06:15:41;3.03;;;2.60;;
14007;SDS011;61651;45.508;12.232;2023-05-10T06:18:43;3.28;;;2.80;;
14007;SDS011;61651;45.508;12.232;2023-05-10T06:21:45;2.88;;;2.67;;
14007;SDS011;61651;45.508;12.232;2023-05-10T06:24:49;2.90;;;2.70;;
14007;SDS011;61651;45.508;12.232;2023-05-10T06:27:51;2.95;;;2.75;;
14007;SDS011;61651;45.508;12.232;2023-05-10T06:30:57;2.70;;;2.50;;
14007;SDS011;61651;45.508;12.232;2023-05-10T06:33:59;4.28;;;2.65;;
14007;SDS011;61651;45.508;12.232;2023-05-10T06:37:01;2.78;;;2.53;;
14007;SDS011;61651;45.508;12.232;2023-05-10T06:40:05;3.05;;;2.75;;
14007;SDS011;61651;45.508;12.232;2023-05-10T06:43:09;3.03;;;2.83;;
14007;SDS011;61651;45.508;12.232;2023-05-10T06:46:11;3.38;;;3.08;;
14007;SDS011;61651;45.508;12.232;2023-05-10T06:49:13;3.38;;;2.97;;
14007;SDS011;61651;45.508;12.232;2023-05-10T06:52:15;3.35;;;2.97;;
14007;SDS011;61651;45.508;12.232;2023-05-10T06:55:19;3.70;;;2.88;;
14007;SDS011;61651;45.508;12.232;2023-05-10T06:58:21;3.97;;;2.90;;
14007;SDS011;61651;45.508;12.232;2023-05-10T07:01:23;3.50;;;3.20;;
14007;SDS011;61651;45.508;12.232;2023-05-10T07:04:25;4.88;;;3.15;;
14007;SDS011;61651;45.508;12.232;2023-05-10T07:07:27;3.42;;;3.13;;
14007;SDS011;61651;45.508;12.232;2023-05-10T07:10:31;3.30;;;3.00;;
14007;SDS011;61651;45.508;12.232;2023-05-10T07:13:34;5.38;;;3.22;;
14007;SDS011;61651;45.508;12.232;2023-05-10T07:16:36;3.17;;;2.90;;
14007;SDS011;61651;45.508;12.232;2023-05-10T07:19:38;3.22;;;2.90;;
14007;SDS011;61651;45.508;12.232;2023-05-10T07:22:40;3.88;;;3.00;;
14007;SDS011;61651;45.508;12.232;2023-05-10T07:25:43;3.80;;;3.33;;
14007;SDS011;61651;45.508;12.232;2023-05-10T07:28:46;3.10;;;2.80;;
14007;SDS011;61651;45.508;12.232;2023-05-10T07:31:48;4.03;;;3.20;;
14007;SDS011;61651;45.508;12.232;2023-05-10T07:34:50;3.00;;;2.72;;
14007;SDS011;61651;45.508;12.232;2023-05-10T07:37:52;4.35;;;3.38;;
14007;SDS011;61651;45.508;12.232;2023-05-10T07:40:55;3.95;;;3.38;;
14007;SDS011;61651;45.508;12.232;2023-05-10T07:43:57;4.75;;;3.35;;
14007;SDS011;61651;45.508;12.232;2023-05-10T07:47:00;3.35;;;3.00;;
14007;SDS011;61651;45.508;12.232;2023-05-10T07:50:02;4.10;;;3.15;;
14007;SDS011;61651;45.508;12.232;2023-05-10T07:53:04;3.13;;;2.88;;
14007;SDS011;61651;45.508;12.232;2023-05-10T07:56:21;3.25;;;2.95;;
14007;SDS011;61651;45.508;12.232;2023-05-10T07:59:25;3.33;;;3.03;;
14007;SDS011;61651;45.508;12.232;2023-05-10T08:02:27;3.75;;;3.40;;
14007;SDS011;61651;45.508;12.232;2023-05-10T08:05:29;4.05;;;3.10;;
14007;SDS011;61651;45.508;12.232;2023-05-10T08:08:31;3.72;;;3.08;;
14007;SDS011;61651;45.508;12.232;2023-05-10T08:11:34;5.07;;;3.78;;
14007;SDS011;61651;45.508;12.232;2023-05-10T08:14:36;4.03;;;3.63;;
14007;SDS011;61651;45.508;12.232;2023-05-10T08:17:38;4.10;;;3.70;;
14007;SDS011;61651;45.508;12.232;2023-05-10T08:20:40;4.00;;;3.63;;
14007;SDS011;61651;45.508;12.232;2023-05-10T08:23:42;3.83;;;3.53;;
14007;SDS011;61651;45.508;12.232;2023-05-10T08:26:46;3.42;;;3.13;;
14007;SDS011;61651;45.508;12.232;2023-05-10T08:29:48;3.58;;;3.15;;
14007;SDS011;61651;45.508;12.232;2023-05-10T08:32:50;3.58;;;3.28;;
14007;SDS011;61651;45.508;12.232;2023-05-10T08:35:52;3.92;;;3.35;;
14007;SDS011;61651;45.508;12.232;2023-05-10T08:38:55;4.05;;;3.58;;
14007;SDS011;61651;45.508;12.232;2023-05-10T08:41:59;4.25;;;3.85;;
14007;SDS011;61651;45.508;12.232;2023-05-10T08:45:04;4.10;;;3.55;;
14007;SDS011;61651;45.508;12.232;2023-05-10T08:48:08;5.45;;;4.13;;
14007;SDS011;61651;45.508;12.232;2023-05-10T08:51:12;5.35;;;4.07;;
14007;SDS011;61651;45.508;12.232;2023-05-10T08:54:16;4.35;;;3.95;;
14007;SDS011;61651;45.508;12.232;2023-05-10T08:57:20;4.85;;;4.45;;
14007;SDS011;61651;45.508;12.232;2023-05-10T09:00:22;5.85;;;4.05;;
14007;SDS011;61651;45.508;12.232;2023-05-10T09:03:24;5.38;;;3.95;;
14007;SDS011;61651;45.508;12.232;2023-05-10T09:06:26;4.68;;;4.18;;
14007;SDS011;61651;45.508;12.232;2023-05-10T09:09:28;6.07;;;4.55;;
14007;SDS011;61651;45.508;12.232;2023-05-10T09:12:33;4.60;;;4.10;;
14007;SDS011;61651;45.508;12.232;2023-05-10T09:15:35;5.72;;;4.65;;
14007;SDS011;61651;45.508;12.232;2023-05-10T09:18:37;4.38;;;3.97;;
14007;SDS011;61651;45.508;12.232;2023-05-10T09:21:39;4.10;;;3.70;;
14007;SDS011;61651;45.508;12.232;2023-05-10T09:24:42;4.88;;;3.92;;
14007;SDS011;61651;45.508;12.232;2023-05-10T09:27:47;3.90;;;3.60;;
14007;SDS011;61651;45.508;12.232;2023-05-10T09:30:52;4.28;;;3.78;;
14007;SDS011;61651;45.508;12.232;2023-05-10T09:33:55;6.00;;;3.90;;
14007;SDS011;61651;45.508;12.232;2023-05-10T09:36:58;4.72;;;4.32;;
14007;SDS011;61651;45.508;12.232;2023-05-10T09:40:03;3.97;;;3.63;;
14007;SDS011;61651;45.508;12.232;2023-05-10T09:43:08;4.38;;;3.97;;
14007;SDS011;61651;45.508;12.232;2023-05-10T09:46:11;4.50;;;4.10;;
14007;SDS011;61651;45.508;12.232;2023-05-10T09:49:14;5.07;;;4.57;;
14007;SDS011;61651;45.508;12.232;2023-05-10T09:52:16;4.30;;;3.90;;
14007;SDS011;61651;45.508;12.232;2023-05-10T09:55:18;5.10;;;4.40;;
14007;SDS011;61651;45.508;12.232;2023-05-10T09:58:23;4.97;;;3.95;;
14007;SDS011;61651;45.508;12.232;2023-05-10T10:01:25;4.95;;;4.20;;
14007;SDS011;61651;45.508;12.232;2023-05-10T10:04:27;6.85;;;4.68;;
14007;SDS011;61651;45.508;12.232;2023-05-10T10:07:30;5.88;;;5.03;;
14007;SDS011;61651;45.508;12.232;2023-05-10T10:10:32;7.53;;;4.25;;
14007;SDS011;61651;45.508;12.232;2023-05-10T10:13:36;4.63;;;4.22;;
14007;SDS011;61651;45.508;12.232;2023-05-10T10:16:38;5.55;;;4.63;;
14007;SDS011;61651;45.508;12.232;2023-05-10T10:19:40;4.50;;;4.00;;
14007;SDS011;61651;45.508;12.232;2023-05-10T10:22:43;4.72;;;4.22;;
14007;SDS011;61651;45.508;12.232;2023-05-10T10:25:45;4.70;;;4.30;;
14007;SDS011;61651;45.508;12.232;2023-05-10T10:28:51;5.00;;;4.60;;
14007;SDS011;61651;45.508;12.232;2023-05-10T10:32:03;6.15;;;4.82;;
14007;SDS011;61651;45.508;12.232;2023-05-10T10:35:12;4.55;;;4.13;;
14007;SDS011;61651;45.508;12.232;2023-05-10T10:38:14;5.20;;;4.70;;
14007;SDS011;61651;45.508;12.232;2023-05-10T10:41:26;7.20;;;4.47;;
14007;SDS011;61651;45.508;12.232;2023-05-10T10:44:36;4.97;;;4.30;;
14007;SDS011;61651;45.508;12.232;2023-05-10T10:47:39;4.43;;;4.03;;
14007;SDS011;61651;45.508;12.232;2023-05-10T10:50:43;4.63;;;4.22;;
14007;SDS011;61651;45.508;12.232;2023-05-10T10:53:47;4.55;;;3.97;;
14007;SDS011;61651;45.508;12.232;2023-05-10T11:00:21;5.80;;;5.05;;
14007;SDS011;61651;45.508;12.232;2023-05-10T11:03:28;7.10;;;5.28;;
14007;SDS011;61651;45.508;12.232;2023-05-10T11:06:30;5.93;;;4.75;;
14007;SDS011;61651;45.508;12.232;2023-05-10T11:09:38;5.03;;;4.47;;
14007;SDS011;61651;45.508;12.232;2023-05-10T11:12:50;5.72;;;4.88;;
14007;SDS011;61651;45.508;12.232;2023-05-10T11:15:54;6.28;;;4.72;;
14007;SDS011;61651;45.508;12.232;2023-05-10T11:18:59;5.38;;;4.53;;
14007;SDS011;61651;45.508;12.232;2023-05-10T11:22:13;4.97;;;4.50;;
14007;SDS011;61651;45.508;12.232;2023-05-10T11:25:15;5.82;;;4.97;;
14007;SDS011;61651;45.508;12.232;2023-05-10T11:28:17;4.70;;;4.30;;
14007;SDS011;61651;45.508;12.232;2023-05-10T11:31:22;4.57;;;4.18;;
14007;SDS011;61651;45.508;12.232;2023-05-10T11:34:27;6.05;;;5.05;;
14007;SDS011;61651;45.508;12.232;2023-05-10T11:37:30;5.22;;;4.22;;
14007;SDS011;61651;45.508;12.232;2023-05-10T11:40:34;4.45;;;4.03;;
14007;SDS011;61651;45.508;12.232;2023-05-10T11:43:36;4.70;;;4.22;;
14007;SDS011;61651;45.508;12.232;2023-05-10T11:46:41;4.53;;;4.13;;
14007;SDS011;61651;45.508;12.232;2023-05-10T11:49:43;4.88;;;4.20;;
14007;SDS011;61651;45.508;12.232;2023-05-10T11:52:45;4.65;;;4.18;;
14007;SDS011;61651;45.508;12.232;2023-05-10T11:55:52;5.53;;;4.53;;
14007;SDS011;61651;45.508;12.232;2023-05-10T11:58:54;5.80;;;5.03;;
14007;SDS011;61651;45.508;12.232;2023-05-10T12:01:58;6.13;;;4.72;;
14007;SDS011;61651;45.508;12.232;2023-05-10T12:05:00;5.13;;;4.63;;
14007;SDS011;61651;45.508;12.232;2023-05-10T12:08:11;4.75;;;4.30;;
14007;SDS011;61651;45.508;12.232;2023-05-10T12:11:14;5.30;;;4.80;;
14007;SDS011;61651;45.508;12.232;2023-05-10T12:14:17;5.60;;;4.72;;
14007;SDS011;61651;45.508;12.232;2023-05-10T12:17:23;6.20;;;4.82;;
14007;SDS011;61651;45.508;12.232;2023-05-10T12:20:28;5.45;;;4.95;;
14007;SDS011;61651;45.508;12.232;2023-05-10T12:23:30;4.93;;;4.53;;
14007;SDS011;61651;45.508;12.232;2023-05-10T12:26:32;5.90;;;4.85;;
14007;SDS011;61651;45.508;12.232;2023-05-10T12:29:36;5.60;;;4.47;;
14007;SDS011;61651;45.508;12.232;2023-05-10T12:32:45;6.57;;;5.55;;
14007;SDS011;61651;45.508;12.232;2023-05-10T12:35:48;5.72;;;5.13;;
14007;SDS011;61651;45.508;12.232;2023-05-10T12:38:51;6.10;;;5.03;;
14007;SDS011;61651;45.508;12.232;2023-05-10T12:42:03;9.10;;;4.90;;
14007;SDS011;61651;45.508;12.232;2023-05-10T12:45:06;6.05;;;4.47;;
14007;SDS011;61651;45.508;12.232;2023-05-10T12:48:11;6.85;;;5.50;;
14007;SDS011;61651;45.508;12.232;2023-05-10T12:51:13;6.32;;;4.88;;
14007;SDS011;61651;45.508;12.232;2023-05-10T12:54:17;4.97;;;4.57;;
14007;SDS011;61651;45.508;12.232;2023-05-10T12:57:19;6.05;;;4.65;;
14007;SDS011;61651;45.508;12.232;2023-05-10T13:00:22;6.57;;;5.10;;
14007;SDS011;61651;45.508;12.232;2023-05-10T13:03:25;6.43;;;5.38;;
14007;SDS011;61651;45.508;12.232;2023-05-10T13:06:27;6.68;;;5.18;;
14007;SDS011;61651;45.508;12.232;2023-05-10T13:09:30;5.10;;;4.60;;
14007;SDS011;61651;45.508;12.232;2023-05-10T13:12:32;7.22;;;5.30;;
14007;SDS011;61651;45.508;12.232;2023-05-10T13:15:34;6.13;;;5.53;;
14007;SDS011;61651;45.508;12.232;2023-05-10T13:18:38;8.68;;;5.18;;
14007;SDS011;61651;45.508;12.232;2023-05-10T13:21:40;6.47;;;5.07;;
14007;SDS011;61651;45.508;12.232;2023-05-10T13:24:42;6.80;;;4.68;;
14007;SDS011;61651;45.508;12.232;2023-05-10T13:27:44;6.13;;;5.53;;
14007;SDS011;61651;45.508;12.232;2023-05-10T13:30:46;7.65;;;5.18;;
14007;SDS011;61651;45.508;12.232;2023-05-10T13:33:49;8.27;;;5.80;;
14007;SDS011;61651;45.508;12.232;2023-05-10T13:36:52;6.75;;;5.50;;
14007;SDS011;61651;45.508;12.232;2023-05-10T13:39:55;5.78;;;5.18;;
14007;SDS011;61651;45.508;12.232;2023-05-10T13:42:57;9.93;;;5.93;;
14007;SDS011;61651;45.508;12.232;2023-05-10T13:46:00;8.90;;;5.55;;
14007;SDS011;61651;45.508;12.232;2023-05-10T13:49:04;6.18;;;5.57;;
14007;SDS011;61651;45.508;12.232;2023-05-10T13:52:06;6.00;;;5.43;;
14007;SDS011;61651;45.508;12.232;2023-05-10T13:55:09;8.00;;;6.00;;
14007;SDS011;61651;45.508;12.232;2023-05-10T13:58:13;6.75;;;5.80;;
14007;SDS011;61651;45.508;12.232;2023-05-10T14:01:15;6.13;;;5.53;;
14007;SDS011;61651;45.508;12.232;2023-05-10T14:04:19;7.00;;;5.78;;
14007;SDS011;61651;45.508;12.232;2023-05-10T14:07:20;5.75;;;5.05;;
14007;SDS011;61651;45.508;12.232;2023-05-10T14:10:22;5.43;;;4.90;;
14007;SDS011;61651;45.508;12.232;2023-05-10T14:13:25;5.75;;;5.25;;
14007;SDS011;61651;45.508;12.232;2023-05-10T14:16:27;5.85;;;5.25;;
14007;SDS011;61651;45.508;12.232;2023-05-10T14:19:30;5.10;;;4.63;;
14007;SDS011;61651;45.508;12.232;2023-05-10T14:22:34;6.00;;;4.43;;
14007;SDS011;61651;45.508;12.232;2023-05-10T14:25:36;5.57;;;4.65;;
14007;SDS011;61651;45.508;12.232;2023-05-10T14:28:38;5.90;;;5.32;;
14007;SDS011;61651;45.508;12.232;2023-05-10T14:31:40;6.80;;;6.13;;
14007;SDS011;61651;45.508;12.232;2023-05-10T14:34:44;7.88;;;6.30;;
14007;SDS011;61651;45.508;12.232;2023-05-10T14:37:46;6.32;;;5.72;;
14007;SDS011;61651;45.508;12.232;2023-05-10T14:40:48;6.45;;;5.85;;
14007;SDS011;61651;45.508;12.232;2023-05-10T14:43:50;5.30;;;4.80;;
14007;SDS011;61651;45.508;12.232;2023-05-10T14:46:52;6.22;;;5.63;;
14007;SDS011;61651;45.508;12.232;2023-05-10T14:49:56;6.43;;;5.57;;
14007;SDS011;61651;45.508;12.232;2023-05-10T14:52:58;5.85;;;5.35;;
14007;SDS011;61651;45.508;12.232;2023-05-10T14:56:00;6.03;;;5.38;;
14007;SDS011;61651;45.508;12.232;2023-05-10T14:59:03;6.65;;;6.07;;
14007;SDS011;61651;45.508;12.232;2023-05-10T15:02:05;7.95;;;7.18;;
14007;SDS011;61651;45.508;12.232;2023-05-10T15:05:09;8.65;;;7.85;;
14007;SDS011;61651;45.508;12.232;2023-05-10T15:08:11;7.57;;;6.82;;
14007;SDS011;61651;45.508;12.232;2023-05-10T15:11:13;7.60;;;6.25;;
14007;SDS011;61651;45.508;12.232;2023-05-10T15:14:15;7.65;;;6.90;;
14007;SDS011;61651;45.508;12.232;2023-05-10T15:17:17;7.22;;;6.53;;
14007;SDS011;61651;45.508;12.232;2023-05-10T15:20:21;8.07;;;7.30;;
14007;SDS011;61651;45.508;12.232;2023-05-10T15:23:23;6.38;;;5.78;;
14007;SDS011;61651;45.508;12.232;2023-05-10T15:26:25;7.97;;;7.18;;
14007;SDS011;61651;45.508;12.232;2023-05-10T15:29:27;8.95;;;8.05;;
14007;SDS011;61651;45.508;12.232;2023-05-10T15:32:29;9.85;;;7.93;;
14007;SDS011;61651;45.508;12.232;2023-05-10T15:35:33;8.15;;;7.35;;
14007;SDS011;61651;45.508;12.232;2023-05-10T15:38:35;7.22;;;6.53;;
14007;SDS011;61651;45.508;12.232;2023-05-10T15:41:37;8.00;;;7.25;;
14007;SDS011;61651;45.508;12.232;2023-05-10T15:44:40;8.25;;;6.55;;
14007;SDS011;61651;45.508;12.232;2023-05-10T15:47:43;8.65;;;6.90;;
14007;SDS011;61651;45.508;12.232;2023-05-10T15:50:47;7.35;;;6.65;;
14007;SDS011;61651;45.508;12.232;2023-05-10T15:53:49;7.25;;;6.55;;
14007;SDS011;61651;45.508;12.232;2023-05-10T15:56:51;9.35;;;7.18;;
14007;SDS011;61651;45.508;12.232;2023-05-10T15:59:54;7.20;;;6.47;;
14007;SDS011;61651;45.508;12.232;2023-05-10T16:02:57;7.85;;;7.07;;
14007;SDS011;61651;45.508;12.232;2023-05-10T16:06:00;8.38;;;7.55;;
14007;SDS011;61651;45.508;12.232;2023-05-10T16:09:02;6.85;;;6.25;;
14007;SDS011;61651;45.508;12.232;2023-05-10T16:12:04;7.40;;;6.70;;
14007;SDS011;61651;45.508;12.232;2023-05-10T16:15:07;8.15;;;6.70;;
14007;SDS011;61651;45.508;12.232;2023-05-10T16:18:09;7.32;;;6.70;;
14007;SDS011;61651;45.508;12.232;2023-05-10T16:21:13;9.60;;;6.47;;
14007;SDS011;61651;45.508;12.232;2023-05-10T16:24:15;7.70;;;6.72;;
14007;SDS011;61651;45.508;12.232;2023-05-10T16:27:17;8.15;;;7.25;;
14007;SDS011;61651;45.508;12.232;2023-05-10T16:30:19;6.68;;;6.07;;
14007;SDS011;61651;45.508;12.232;2023-05-10T16:33:23;7.60;;;6.90;;
14007;SDS011;61651;45.508;12.232;2023-05-10T16:36:26;6.45;;;5.95;;
14007;SDS011;61651;45.508;12.232;2023-05-10T16:39:29;6.82;;;6.22;;
14007;SDS011;61651;45.508;12.232;2023-05-10T16:42:31;8.75;;;6.95;;
14007;SDS011;61651;45.508;12.232;2023-05-10T16:45:33;6.78;;;6.18;;
14007;SDS011;61651;45.508;12.232;2023-05-10T16:48:35;6.35;;;5.75;;
14007;SDS011;61651;45.508;12.232;2023-05-10T16:51:38;6.93;;;6.32;;
14007;SDS011;61651;45.508;12.232;2023-05-10T16:54:41;6.82;;;6.25;;
14007;SDS011;61651;45.508;12.232;2023-05-10T16:57:43;10.00;;;6.97;;
14007;SDS011;61651;45.508;12.232;2023-05-10T17:00:45;7.38;;;6.68;;
14007;SDS011;61651;45.508;12.232;2023-05-10T17:03:47;7.30;;;6.60;;
14007;SDS011;61651;45.508;12.232;2023-05-10T17:06:50;6.40;;;5.80;;
14007;SDS011;61651;45.508;12.232;2023-05-10T17:09:52;7.45;;;6.72;;
14007;SDS011;61651;45.508;12.232;2023-05-10T17:12:54;7.50;;;6.80;;
14007;SDS011;61651;45.508;12.232;2023-05-10T17:15:56;6.88;;;6.30;;
14007;SDS011;61651;45.508;12.232;2023-05-10T17:18:58;8.40;;;6.55;;
14007;SDS011;61651;45.508;12.232;2023-05-10T17:22:05;7.50;;;6.82;;
14007;SDS011;61651;45.508;12.232;2023-05-10T17:25:09;7.28;;;6.50;;
14007;SDS011;61651;45.508;12.232;2023-05-10T17:28:11;7.40;;;6.75;;
14007;SDS011;61651;45.508;12.232;2023-05-10T17:31:13;6.97;;;6.43;;
14007;SDS011;61651;45.508;12.232;2023-05-10T17:34:15;8.68;;;6.70;;
14007;SDS011;61651;45.508;12.232;2023-05-10T17:37:22;7.70;;;7.10;;
14007;SDS011;61651;45.508;12.232;2023-05-10T17:40:25;8.18;;;7.47;;
14007;SDS011;61651;45.508;12.232;2023-05-10T17:43:27;8.45;;;7.65;;
14007;SDS011;61651;45.508;12.232;2023-05-10T17:46:29;8.10;;;7.40;;
14007;SDS011;61651;45.508;12.232;2023-05-10T17:49:31;8.25;;;7.47;;
14007;SDS011;61651;45.508;12.232;2023-05-10T17:52:35;10.18;;;7.85;;
14007;SDS011;61651;45.508;12.232;2023-05-10T17:55:38;8.10;;;7.32;;
14007;SDS011;61651;45.508;12.232;2023-05-10T17:58:40;9.57;;;8.57;;
14007;SDS011;61651;45.508;12.232;2023-05-10T18:01:42;7.78;;;7.05;;
14007;SDS011;61651;45.508;12.232;2023-05-10T18:04:45;8.68;;;7.88;;
14007;SDS011;61651;45.508;12.232;2023-05-10T18:07:49;8.70;;;7.90;;
14007;SDS011;61651;45.508;12.232;2023-05-10T18:10:51;9.02;;;7.93;;
14007;SDS011;61651;45.508;12.232;2023-05-10T18:13:53;11.10;;;9.02;;
14007;SDS011;61651;45.508;12.232;2023-05-10T18:16:55;9.98;;;8.95;;
14007;SDS011;61651;45.508;12.232;2023-05-10T18:19:57;9.60;;;8.77;;
14007;SDS011;61651;45.508;12.232;2023-05-10T18:23:01;11.77;;;7.50;;
14007;SDS011;61651;45.508;12.232;2023-05-10T18:26:03;8.73;;;7.93;;
14007;SDS011;61651;45.508;12.232;2023-05-10T18:29:05;8.65;;;7.75;;
14007;SDS011;61651;45.508;12.232;2023-05-10T18:32:07;8.32;;;7.57;;
14007;SDS011;61651;45.508;12.232;2023-05-10T18:35:09;8.95;;;7.47;;
14007;SDS011;61651;45.508;12.232;2023-05-10T18:38:13;10.32;;;8.18;;
14007;SDS011;61651;45.508;12.232;2023-05-10T18:41:15;8.80;;;7.97;;
14007;SDS011;61651;45.508;12.232;2023-05-10T18:44:17;8.25;;;7.40;;
14007;SDS011;61651;45.508;12.232;2023-05-10T18:47:21;8.27;;;7.57;;
14007;SDS011;61651;45.508;12.232;2023-05-10T18:50:22;7.28;;;6.53;;
14007;SDS011;61651;45.508;12.232;2023-05-10T18:53:26;7.53;;;6.82;;
14007;SDS011;61651;45.508;12.232;2023-05-10T18:56:28;7.35;;;6.72;;
14007;SDS011;61651;45.508;12.232;2023-05-10T18:59:30;7.95;;;7.15;;
14007;SDS011;61651;45.508;12.232;2023-05-10T19:02:32;7.90;;;7.18;;
14007;SDS011;61651;45.508;12.232;2023-05-10T19:05:35;7.30;;;6.60;;
14007;SDS011;61651;45.508;12.232;2023-05-10T19:08:38;7.22;;;6.63;;
14007;SDS011;61651;45.508;12.232;2023-05-10T19:11:41;7.25;;;6.65;;
14007;SDS011;61651;45.508;12.232;2023-05-10T19:14:43;7.45;;;6.75;;
14007;SDS011;61651;45.508;12.232;2023-05-10T19:17:46;6.25;;;5.75;;
14007;SDS011;61651;45.508;12.232;2023-05-10T19:20:49;6.75;;;6.05;;
14007;SDS011;61651;45.508;12.232;2023-05-10T19:24:03;7.05;;;6.20;;
14007;SDS011;61651;45.508;12.232;2023-05-10T19:27:06;7.68;;;6.97;;
14007;SDS011;61651;45.508;12.232;2023-05-10T19:30:10;6.57;;;5.90;;
14007;SDS011;61651;45.508;12.232;2023-05-10T19:33:14;6.97;;;6.28;;
14007;SDS011;61651;45.508;12.232;2023-05-10T19:36:17;7.05;;;6.40;;
14007;SDS011;61651;45.508;12.232;2023-05-10T19:39:21;7.57;;;6.25;;
14007;SDS011;61651;45.508;12.232;2023-05-10T19:42:23;6.68;;;6.07;;
14007;SDS011;61651;45.508;12.232;2023-05-10T19:45:26;6.03;;;5.53;;
14007;SDS011;61651;45.508;12.232;2023-05-10T19:48:28;6.80;;;5.95;;
14007;SDS011;61651;45.508;12.232;2023-05-10T19:51:31;7.07;;;6.38;;
14007;SDS011;61651;45.508;12.232;2023-05-10T19:54:35;5.85;;;5.35;;
14007;SDS011;61651;45.508;12.232;2023-05-10T19:57:37;6.50;;;5.95;;